Terminal Aerodrome Forecast
Issued by NWS Wilmington, OH

Current Version | Previous Version | Graphics & Text | Print | Product List | Glossary On
Versions: 1 2 3 4 5 6 7 8 9 10 11 12 13
731
FTUS41 KILN 211730
TAFCMH
TAF
KCMH 211730Z 2118/2218 08005KT P6SM OVC200
     FM212000 04006KT P6SM BKN120 OVC200
     FM220300 VRB03KT P6SM FEW120 BKN250
     FM221200 06006KT P6SM SCT250=

USA.gov is the U.S. government's official web portal to all federal, state and local government web resources and services.